Airport Name : Caumont

Other Name : Avignon

ICAO : LFMV

IATA : AVN

FAA :

Latitude : 43.9073

Longitude : 4.901831

Country : France

Local Date and Time : 19 Sep 2020 07:35

 

TAF (Terminal Aerodrome Forecast)

TAF LFMV 190200Z 1903/2003 12008KT CAVOK TEMPO 1912/1917 VRB15G25KT SHRA SCT025TCU BKN080 TEMPO 1917/2003 VRB20G40KT 4000 TSRA BKN020 SCT025CB

 

METAR (METeorological Aerodrome Report)

LFMV 190530Z AUTO 17004KT CAVOK 21/16 Q1016 NOSIG

LFMV 190500Z AUTO 13003KT CAVOK 21/15 Q1016 NOSIG

LFMV 190430Z AUTO 15003KT CAVOK 21/16 Q1016 NOSIG

LFMV 190400Z AUTO 13004KT CAVOK 21/16 Q1016 NOSIG

LFMV 190330Z AUTO 18003KT CAVOK 20/17 Q1016 NOSIG

LFMV 190300Z AUTO 15004KT CAVOK 20/18 Q1016 NOSIG

LFMV 190230Z AUTO 13002KT CAVOK 21/18 Q1016

LFMV 190200Z AUTO 14003KT 100V160 CAVOK 21/17 Q1016

To Charter a Jet Click here.